sensor_id;sensor_type;location;lat;lon;timestamp;pressure;altitude;pressure_sealevel;temperature;humidity
23321;BME280;33376;51.306;4.752;2022-10-31T00:01:27;73376.94;;;-0.03;nan
23321;BME280;33376;51.306;4.752;2022-10-31T00:03:53;73370.84;;;-0.03;nan
23321;BME280;33376;51.306;4.752;2022-10-31T00:06:19;73372.38;;;-0.03;nan
23321;BME280;33376;51.306;4.752;2022-10-31T00:08:51;73363.22;;;-0.03;nan
23321;BME280;33376;51.306;4.752;2022-10-31T00:11:16;73373.91;;;-0.03;nan
23321;BME280;33376;51.306;4.752;2022-10-31T00:13:41;73392.22;;;-0.03;nan
23321;BME280;33376;51.306;4.752;2022-10-31T00:16:12;73399.84;;;-0.03;nan
23321;BME280;33376;51.306;4.752;2022-10-31T00:18:38;73395.25;;;-0.03;nan
23321;BME280;33376;51.306;4.752;2022-10-31T00:21:03;73404.41;;;-0.03;nan
23321;BME280;33376;51.306;4.752;2022-10-31T00:23:28;73413.56;;;-0.03;nan
23321;BME280;33376;51.306;4.752;2022-10-31T00:25:54;73405.94;;;-0.03;nan
23321;BME280;33376;51.306;4.752;2022-10-31T00:28:24;73399.84;;;-0.03;nan
23321;BME280;33376;51.306;4.752;2022-10-31T00:30:49;73418.16;;;-0.03;nan
23321;BME280;33376;51.306;4.752;2022-10-31T00:33:14;73416.63;;;-0.03;nan
23321;BME280;33376;51.306;4.752;2022-10-31T00:35:40;73419.69;;;-0.03;nan
23321;BME280;33376;51.306;4.752;2022-10-31T00:38:05;73422.72;;;-0.03;nan
23321;BME280;33376;51.306;4.752;2022-10-31T00:40:30;73434.94;;;-0.03;nan
23321;BME280;33376;51.306;4.752;2022-10-31T00:42:55;73434.94;;;-0.03;nan
23321;BME280;33376;51.306;4.752;2022-10-31T00:45:21;73436.47;;;-0.03;nan
23321;BME280;33376;51.306;4.752;2022-10-31T00:47:46;73431.88;;;-0.03;nan
23321;BME280;33376;51.306;4.752;2022-10-31T00:50:11;73445.63;;;-0.03;nan
23321;BME280;33376;51.306;4.752;2022-10-31T00:52:36;73459.34;;;-0.03;nan
23321;BME280;33376;51.306;4.752;2022-10-31T00:55:01;73477.66;;;-0.03;nan
23321;BME280;33376;51.306;4.752;2022-10-31T00:57:27;73482.25;;;-0.03;nan
23321;BME280;33376;51.306;4.752;2022-10-31T00:59:52;73477.66;;;-0.03;nan
23321;BME280;33376;51.306;4.752;2022-10-31T01:02:17;73485.28;;;-0.03;nan
23321;BME280;33376;51.306;4.752;2022-10-31T01:04:42;73489.88;;;-0.03;nan
23321;BME280;33376;51.306;4.752;2022-10-31T01:07:09;73483.75;;;-0.03;nan
23321;BME280;33376;51.306;4.752;2022-10-31T01:09:36;73491.41;;;-0.03;nan
23321;BME280;33376;51.306;4.752;2022-10-31T01:12:01;73495.97;;;-0.03;nan
23321;BME280;33376;51.306;4.752;2022-10-31T01:14:26;73502.06;;;-0.03;nan
23321;BME280;33376;51.306;4.752;2022-10-31T01:16:52;73497.50;;;-0.03;nan
23321;BME280;33376;51.306;4.752;2022-10-31T01:19:17;73500.56;;;-0.03;nan
23321;BME280;33376;51.306;4.752;2022-10-31T01:21:42;73508.19;;;-0.03;nan
23321;BME280;33376;51.306;4.752;2022-10-31T01:24:08;73520.38;;;-0.03;nan
23321;BME280;33376;51.306;4.752;2022-10-31T01:26:33;73528.03;;;-0.03;nan
23321;BME280;33376;51.306;4.752;2022-10-31T01:29:01;73538.69;;;-0.03;nan
23321;BME280;33376;51.306;4.752;2022-10-31T01:31:31;73541.75;;;-0.03;nan
23321;BME280;33376;51.306;4.752;2022-10-31T01:33:57;73541.75;;;-0.03;nan
23321;BME280;33376;51.306;4.752;2022-10-31T01:36:23;73538.69;;;-0.03;nan
23321;BME280;33376;51.306;4.752;2022-10-31T01:38:49;73540.22;;;-0.03;nan
23321;BME280;33376;51.306;4.752;2022-10-31T01:41:16;73555.47;;;-0.03;nan
23321;BME280;33376;51.306;4.752;2022-10-31T01:43:58;73573.78;;;-0.03;nan
23321;BME280;33376;51.306;4.752;2022-10-31T01:46:29;73581.41;;;-0.03;nan
23321;BME280;33376;51.306;4.752;2022-10-31T01:48:57;73590.56;;;-0.03;nan
23321;BME280;33376;51.306;4.752;2022-10-31T01:51:25;73605.84;;;-0.03;nan
23321;BME280;33376;51.306;4.752;2022-10-31T01:53:54;73627.19;;;-0.03;nan
23321;BME280;33376;51.306;4.752;2022-10-31T01:56:21;73628.72;;;-0.03;nan
23321;BME280;33376;51.306;4.752;2022-10-31T01:58:46;73633.31;;;-0.03;nan
23321;BME280;33376;51.306;4.752;2022-10-31T02:01:12;73634.81;;;-0.03;nan
23321;BME280;33376;51.306;4.752;2022-10-31T02:03:38;73624.16;;;-0.03;nan
23321;BME280;33376;51.306;4.752;2022-10-31T02:06:04;73618.03;;;-0.03;nan
23321;BME280;33376;51.306;4.752;2022-10-31T02:08:31;73622.63;;;-0.03;nan
23321;BME280;33376;51.306;4.752;2022-10-31T02:10:58;73634.81;;;-0.03;nan
23321;BME280;33376;51.306;4.752;2022-10-31T02:13:25;73643.97;;;-0.03;nan
23321;BME280;33376;51.306;4.752;2022-10-31T02:15:54;73637.88;;;-0.03;nan
23321;BME280;33376;51.306;4.752;2022-10-31T02:18:19;73637.88;;;-0.03;nan
23321;BME280;33376;51.306;4.752;2022-10-31T02:20:48;73634.81;;;-0.03;nan
23321;BME280;33376;51.306;4.752;2022-10-31T02:36:11;73625.69;;;-0.03;nan
23321;BME280;33376;51.306;4.752;2022-10-31T02:41:06;73640.94;;;-0.03;nan
23321;BME280;33376;51.306;4.752;2022-10-31T02:46:32;73647.03;;;-0.03;nan
23321;BME280;33376;51.306;4.752;2022-10-31T02:49:00;73659.25;;;-0.03;nan
23321;BME280;33376;51.306;4.752;2022-10-31T02:51:29;73668.41;;;-0.03;nan
23321;BME280;33376;51.306;4.752;2022-10-31T02:53:54;73676.03;;;-0.03;nan
23321;BME280;33376;51.306;4.752;2022-10-31T02:56:19;73692.81;;;-0.03;nan
23321;BME280;33376;51.306;4.752;2022-10-31T02:58:49;73694.34;;;-0.03;nan
23321;BME280;33376;51.306;4.752;2022-10-31T03:11:18;73724.84;;;-0.03;nan
23321;BME280;33376;51.306;4.752;2022-10-31T03:13:58;73724.84;;;-0.03;nan
23321;BME280;33376;51.306;4.752;2022-10-31T03:16:43;73721.81;;;-0.03;nan
23321;BME280;33376;51.306;4.752;2022-10-31T03:19:11;73718.75;;;-0.03;nan
23321;BME280;33376;51.306;4.752;2022-10-31T03:21:41;73717.22;;;-0.03;nan
23321;BME280;33376;51.306;4.752;2022-10-31T03:24:09;73721.81;;;-0.03;nan
23321;BME280;33376;51.306;4.752;2022-10-31T03:26:35;73729.44;;;-0.03;nan
23321;BME280;33376;51.306;4.752;2022-10-31T03:29:04;73726.38;;;-0.03;nan
23321;BME280;33376;51.306;4.752;2022-10-31T03:31:45;73727.91;;;-0.03;nan
23321;BME280;33376;51.306;4.752;2022-10-31T03:34:13;73729.44;;;-0.03;nan
23321;BME280;33376;51.306;4.752;2022-10-31T03:36:39;73715.69;;;-0.03;nan
23321;BME280;33376;51.306;4.752;2022-10-31T03:39:05;73723.34;;;-0.03;nan
23321;BME280;33376;51.306;4.752;2022-10-31T03:41:33;73729.44;;;-0.03;nan
23321;BME280;33376;51.306;4.752;2022-10-31T03:44:04;73724.84;;;-0.03;nan
23321;BME280;33376;51.306;4.752;2022-10-31T03:46:31;73763.00;;;-0.03;nan
23321;BME280;33376;51.306;4.752;2022-10-31T03:48:56;73778.25;;;-0.02;nan
23321;BME280;33376;51.306;4.752;2022-10-31T03:51:23;73788.94;;;-0.02;nan
23321;BME280;33376;51.306;4.752;2022-10-31T03:54:00;73792.00;;;-0.02;nan
23321;BME280;33376;51.306;4.752;2022-10-31T03:58:58;73807.25;;;-0.02;nan
23321;BME280;33376;51.306;4.752;2022-10-31T04:01:25;73817.94;;;-0.02;nan
23321;BME280;33376;51.306;4.752;2022-10-31T04:03:51;73807.25;;;-0.02;nan
23321;BME280;33376;51.306;4.752;2022-10-31T04:06:17;73796.56;;;-0.02;nan
23321;BME280;33376;51.306;4.752;2022-10-31T04:08:57;73805.72;;;-0.02;nan
23321;BME280;33376;51.306;4.752;2022-10-31T04:11:27;73813.34;;;-0.02;nan
23321;BME280;33376;51.306;4.752;2022-10-31T04:13:53;73813.34;;;-0.02;nan
23321;BME280;33376;51.306;4.752;2022-10-31T04:16:20;73799.63;;;-0.02;nan
23321;BME280;33376;51.306;4.752;2022-10-31T04:18:45;73795.03;;;-0.02;nan
23321;BME280;33376;51.306;4.752;2022-10-31T04:21:11;73788.94;;;-0.02;nan
23321;BME280;33376;51.306;4.752;2022-10-31T04:23:36;73782.84;;;-0.03;nan
23321;BME280;33376;51.306;4.752;2022-10-31T04:26:01;73782.84;;;-0.03;nan
23321;BME280;33376;51.306;4.752;2022-10-31T04:28:27;73776.75;;;-0.03;nan
23321;BME280;33376;51.306;4.752;2022-10-31T04:30:52;73790.47;;;-0.02;nan
23321;BME280;33376;51.306;4.752;2022-10-31T04:33:17;73792.00;;;-0.02;nan
23321;BME280;33376;51.306;4.752;2022-10-31T04:35:43;73787.41;;;-0.02;nan
23321;BME280;33376;51.306;4.752;2022-10-31T04:38:08;73788.94;;;-0.02;nan
23321;BME280;33376;51.306;4.752;2022-10-31T04:40:34;73788.94;;;-0.02;nan
23321;BME280;33376;51.306;4.752;2022-10-31T04:42:59;73793.53;;;-0.02;nan
23321;BME280;33376;51.306;4.752;2022-10-31T04:45:24;73807.25;;;-0.02;nan
23321;BME280;33376;51.306;4.752;2022-10-31T04:47:49;73810.31;;;-0.02;nan
23321;BME280;33376;51.306;4.752;2022-10-31T04:50:15;73810.31;;;-0.02;nan
23321;BME280;33376;51.306;4.752;2022-10-31T04:52:43;73813.34;;;-0.02;nan
23321;BME280;33376;51.306;4.752;2022-10-31T04:55:09;73804.19;;;-0.02;nan
23321;BME280;33376;51.306;4.752;2022-10-31T04:57:41;73801.16;;;-0.02;nan
23321;BME280;33376;51.306;4.752;2022-10-31T05:00:07;73804.19;;;-0.02;nan
23321;BME280;33376;51.306;4.752;2022-10-31T05:02:32;73807.25;;;-0.02;nan
23321;BME280;33376;51.306;4.752;2022-10-31T05:04:58;73813.34;;;-0.02;nan
23321;BME280;33376;51.306;4.752;2022-10-31T05:07:23;73810.31;;;-0.02;nan
23321;BME280;33376;51.306;4.752;2022-10-31T05:09:48;73827.09;;;-0.02;nan
23321;BME280;33376;51.306;4.752;2022-10-31T05:12:13;73842.34;;;-0.02;nan
23321;BME280;33376;51.306;4.752;2022-10-31T05:14:38;73849.97;;;-0.02;nan
23321;BME280;33376;51.306;4.752;2022-10-31T05:17:04;73853.03;;;-0.02;nan
23321;BME280;33376;51.306;4.752;2022-10-31T05:19:29;73856.09;;;-0.02;nan
23321;BME280;33376;51.306;4.752;2022-10-31T05:21:54;73849.97;;;-0.02;nan
23321;BME280;33376;51.306;4.752;2022-10-31T05:24:19;73857.59;;;-0.02;nan
23321;BME280;33376;51.306;4.752;2022-10-31T05:26:46;73862.19;;;-0.02;nan
23321;BME280;33376;51.306;4.752;2022-10-31T05:29:11;73865.25;;;-0.02;nan
23321;BME280;33376;51.306;4.752;2022-10-31T05:31:37;73854.56;;;-0.02;nan
23321;BME280;33376;51.306;4.752;2022-10-31T05:34:02;73854.56;;;-0.02;nan
23321;BME280;33376;51.306;4.752;2022-10-31T05:36:27;73849.97;;;-0.02;nan
23321;BME280;33376;51.306;4.752;2022-10-31T05:38:52;73843.88;;;-0.02;nan
23321;BME280;33376;51.306;4.752;2022-10-31T05:41:18;73831.66;;;-0.02;nan
23321;BME280;33376;51.306;4.752;2022-10-31T05:43:43;73825.56;;;-0.02;nan
23321;BME280;33376;51.306;4.752;2022-10-31T05:46:08;73824.03;;;-0.02;nan
23321;BME280;33376;51.306;4.752;2022-10-31T05:48:33;73830.16;;;-0.02;nan
23321;BME280;33376;51.306;4.752;2022-10-31T05:50:59;73834.72;;;-0.02;nan
23321;BME280;33376;51.306;4.752;2022-10-31T05:53:24;73830.16;;;-0.02;nan
23321;BME280;33376;51.306;4.752;2022-10-31T05:55:49;73816.41;;;-0.02;nan
23321;BME280;33376;51.306;4.752;2022-10-31T05:58:14;73810.31;;;-0.02;nan
23321;BME280;33376;51.306;4.752;2022-10-31T06:00:40;73816.41;;;-0.02;nan
23321;BME280;33376;51.306;4.752;2022-10-31T06:03:06;73822.50;;;-0.02;nan
23321;BME280;33376;51.306;4.752;2022-10-31T06:05:31;73822.50;;;-0.02;nan
23321;BME280;33376;51.306;4.752;2022-10-31T06:07:57;73825.56;;;-0.02;nan
23321;BME280;33376;51.306;4.752;2022-10-31T06:10:22;73819.47;;;-0.02;nan
23321;BME280;33376;51.306;4.752;2022-10-31T06:12:48;73814.88;;;-0.03;nan
23321;BME280;33376;51.306;4.752;2022-10-31T06:15:13;73833.19;;;-0.02;nan
23321;BME280;33376;51.306;4.752;2022-10-31T06:17:39;73834.72;;;-0.02;nan
23321;BME280;33376;51.306;4.752;2022-10-31T06:20:04;73833.19;;;-0.02;nan
23321;BME280;33376;51.306;4.752;2022-10-31T06:22:30;73825.56;;;-0.02;nan
23321;BME280;33376;51.306;4.752;2022-10-31T06:24:55;73830.16;;;-0.02;nan
23321;BME280;33376;51.306;4.752;2022-10-31T06:27:20;73833.19;;;-0.02;nan
23321;BME280;33376;51.306;4.752;2022-10-31T06:29:45;73827.09;;;-0.03;nan
23321;BME280;33376;51.306;4.752;2022-10-31T06:32:11;73830.16;;;-0.03;nan
23321;BME280;33376;51.306;4.752;2022-10-31T06:34:37;73828.63;;;-0.03;nan
23321;BME280;33376;51.306;4.752;2022-10-31T06:37:02;73824.03;;;-0.03;nan
23321;BME280;33376;51.306;4.752;2022-10-31T06:39:27;73821.00;;;-0.03;nan
23321;BME280;33376;51.306;4.752;2022-10-31T06:41:52;73824.03;;;-0.03;nan
23321;BME280;33376;51.306;4.752;2022-10-31T06:44:17;73821.00;;;-0.03;nan
23321;BME280;33376;51.306;4.752;2022-10-31T06:46:43;73814.88;;;-0.03;nan
23321;BME280;33376;51.306;4.752;2022-10-31T06:49:11;73816.41;;;-0.03;nan
23321;BME280;33376;51.306;4.752;2022-10-31T06:51:36;73817.94;;;-0.03;nan
23321;BME280;33376;51.306;4.752;2022-10-31T06:54:02;73814.88;;;-0.03;nan
23321;BME280;33376;51.306;4.752;2022-10-31T06:56:27;73813.34;;;-0.03;nan
23321;BME280;33376;51.306;4.752;2022-10-31T06:58:52;73807.25;;;-0.03;nan
23321;BME280;33376;51.306;4.752;2022-10-31T07:01:18;73801.16;;;-0.03;nan
23321;BME280;33376;51.306;4.752;2022-10-31T07:03:43;73792.00;;;-0.03;nan
23321;BME280;33376;51.306;4.752;2022-10-31T07:06:08;73785.91;;;-0.03;nan
23321;BME280;33376;51.306;4.752;2022-10-31T07:08:34;73790.47;;;-0.03;nan
23321;BME280;33376;51.306;4.752;2022-10-31T07:10:59;73778.25;;;-0.03;nan
23321;BME280;33376;51.306;4.752;2022-10-31T07:13:24;73773.69;;;-0.03;nan
23321;BME280;33376;51.306;4.752;2022-10-31T07:15:51;73767.59;;;-0.03;nan
23321;BME280;33376;51.306;4.752;2022-10-31T07:18:17;73764.53;;;-0.03;nan
23321;BME280;33376;51.306;4.752;2022-10-31T07:20:42;73756.91;;;-0.03;nan
23321;BME280;33376;51.306;4.752;2022-10-31T07:23:08;73758.44;;;-0.03;nan
23321;BME280;33376;51.306;4.752;2022-10-31T07:25:34;73761.47;;;-0.03;nan
23321;BME280;33376;51.306;4.752;2022-10-31T07:27:59;73759.94;;;-0.03;nan
23321;BME280;33376;51.306;4.752;2022-10-31T07:30:24;73755.38;;;-0.03;nan
23321;BME280;33376;51.306;4.752;2022-10-31T07:32:50;73747.75;;;-0.03;nan
23321;BME280;33376;51.306;4.752;2022-10-31T07:35:17;73730.97;;;-0.03;nan
23321;BME280;33376;51.306;4.752;2022-10-31T07:37:42;73726.38;;;-0.03;nan
23321;BME280;33376;51.306;4.752;2022-10-31T07:40:08;73706.53;;;-0.03;nan
23321;BME280;33376;51.306;4.752;2022-10-31T07:42:36;73705.03;;;-0.03;nan
23321;BME280;33376;51.306;4.752;2022-10-31T07:45:03;73691.28;;;-0.03;nan
23321;BME280;33376;51.306;4.752;2022-10-31T07:47:28;73679.09;;;-0.03;nan
23321;BME280;33376;51.306;4.752;2022-10-31T07:49:53;73663.81;;;-0.03;nan
23321;BME280;33376;51.306;4.752;2022-10-31T07:52:19;73651.63;;;-0.03;nan
23321;BME280;33376;51.306;4.752;2022-10-31T07:54:44;73639.41;;;-0.03;nan
23321;BME280;33376;51.306;4.752;2022-10-31T07:57:09;73634.81;;;-0.03;nan
23321;BME280;33376;51.306;4.752;2022-10-31T07:59:34;73625.69;;;-0.03;nan
23321;BME280;33376;51.306;4.752;2022-10-31T08:01:59;73621.09;;;-0.03;nan
23321;BME280;33376;51.306;4.752;2022-10-31T08:04:25;73619.56;;;-0.03;nan
23321;BME280;33376;51.306;4.752;2022-10-31T08:06:50;73608.88;;;-0.03;nan
23321;BME280;33376;51.306;4.752;2022-10-31T08:09:15;73601.25;;;-0.03;nan
23321;BME280;33376;51.306;4.752;2022-10-31T08:11:40;73590.56;;;-0.03;nan
23321;BME280;33376;51.306;4.752;2022-10-31T08:14:05;73596.69;;;-0.03;nan
23321;BME280;33376;51.306;4.752;2022-10-31T08:16:31;73590.56;;;-0.03;nan
23321;BME280;33376;51.306;4.752;2022-10-31T08:18:56;73584.47;;;-0.03;nan
23321;BME280;33376;51.306;4.752;2022-10-31T08:21:21;73569.22;;;-0.03;nan
23321;BME280;33376;51.306;4.752;2022-10-31T08:23:47;73570.75;;;-0.03;nan
23321;BME280;33376;51.306;4.752;2022-10-31T08:26:12;73569.22;;;-0.03;nan
23321;BME280;33376;51.306;4.752;2022-10-31T08:28:37;73567.69;;;-0.03;nan
23321;BME280;33376;51.306;4.752;2022-10-31T08:31:02;73563.13;;;-0.03;nan
23321;BME280;33376;51.306;4.752;2022-10-31T08:33:28;73563.13;;;-0.03;nan
23321;BME280;33376;51.306;4.752;2022-10-31T08:35:53;73558.53;;;-0.03;nan
23321;BME280;33376;51.306;4.752;2022-10-31T08:38:18;73544.81;;;-0.03;nan
23321;BME280;33376;51.306;4.752;2022-10-31T08:40:47;73541.75;;;-0.03;nan
23321;BME280;33376;51.306;4.752;2022-10-31T08:43:13;73541.75;;;-0.03;nan
23321;BME280;33376;51.306;4.752;2022-10-31T08:45:39;73538.69;;;-0.03;nan
23321;BME280;33376;51.306;4.752;2022-10-31T08:48:05;73537.16;;;-0.03;nan
23321;BME280;33376;51.306;4.752;2022-10-31T08:50:31;73534.13;;;-0.03;nan
23321;BME280;33376;51.306;4.752;2022-10-31T08:53:03;73535.66;;;-0.03;nan
23321;BME280;33376;51.306;4.752;2022-10-31T08:55:29;73523.44;;;-0.03;nan
23321;BME280;33376;51.306;4.752;2022-10-31T08:57:56;73506.66;;;-0.03;nan
23321;BME280;33376;51.306;4.752;2022-10-31T09:00:21;73499.03;;;-0.03;nan
23321;BME280;33376;51.306;4.752;2022-10-31T09:02:46;73483.75;;;-0.03;nan
23321;BME280;33376;51.306;4.752;2022-10-31T09:05:12;73482.25;;;-0.03;nan
23321;BME280;33376;51.306;4.752;2022-10-31T09:07:37;73466.97;;;-0.04;nan
23321;BME280;33376;51.306;4.752;2022-10-31T09:10:02;73454.78;;;-0.04;nan
23321;BME280;33376;51.306;4.752;2022-10-31T09:12:27;73445.63;;;-0.04;nan
23321;BME280;33376;51.306;4.752;2022-10-31T09:14:52;73428.84;;;-0.04;nan
23321;BME280;33376;51.306;4.752;2022-10-31T09:17:18;73428.84;;;-0.04;nan
23321;BME280;33376;51.306;4.752;2022-10-31T09:19:43;73436.47;;;-0.04;nan
23321;BME280;33376;51.306;4.752;2022-10-31T09:22:08;73436.47;;;-0.04;nan
23321;BME280;33376;51.306;4.752;2022-10-31T09:24:33;73438.00;;;-0.04;nan
23321;BME280;33376;51.306;4.752;2022-10-31T09:26:59;73442.56;;;-0.04;nan
23321;BME280;33376;51.306;4.752;2022-10-31T09:29:26;73436.47;;;-0.04;nan
23321;BME280;33376;51.306;4.752;2022-10-31T09:31:51;73425.78;;;-0.04;nan
23321;BME280;33376;51.306;4.752;2022-10-31T09:34:16;73421.22;;;-0.04;nan
23321;BME280;33376;51.306;4.752;2022-10-31T09:36:42;73425.78;;;-0.04;nan
23321;BME280;33376;51.306;4.752;2022-10-31T09:39:08;73421.22;;;-0.04;nan
23321;BME280;33376;51.306;4.752;2022-10-31T09:44:41;73407.47;;;-0.04;nan
23321;BME280;33376;51.306;4.752;2022-10-31T09:49:42;73419.69;;;-0.04;nan
23321;BME280;33376;51.306;4.752;2022-10-31T09:54:45;73419.69;;;-0.04;nan
23321;BME280;33376;51.306;4.752;2022-10-31T09:57:12;73405.94;;;-0.04;nan
23321;BME280;33376;51.306;4.752;2022-10-31T09:59:39;73392.22;;;-0.04;nan
23321;BME280;33376;51.306;4.752;2022-10-31T10:02:16;73398.31;;;-0.04;nan
23321;BME280;33376;51.306;4.752;2022-10-31T10:09:36;73369.31;;;-0.04;nan
23321;BME280;33376;51.306;4.752;2022-10-31T10:19:45;73389.16;;;-0.04;nan
23321;BME280;33376;51.306;4.752;2022-10-31T10:29:42;73380.00;;;-0.04;nan
23321;BME280;33376;51.306;4.752;2022-10-31T10:32:14;73364.75;;;-0.04;nan
23321;BME280;33376;51.306;4.752;2022-10-31T10:35:26;73363.22;;;-0.04;nan
23321;BME280;33376;51.306;4.752;2022-10-31T10:37:35;73338.81;;;-0.04;nan
23321;BME280;33376;51.306;4.752;2022-10-31T10:40:21;73315.91;;;-0.04;nan
23321;BME280;33376;51.306;4.752;2022-10-31T10:45:49;73300.66;;;-0.04;nan
23321;BME280;33376;51.306;4.752;2022-10-31T10:50:58;73286.94;;;-0.04;nan
23321;BME280;33376;51.306;4.752;2022-10-31T10:53:28;73273.19;;;-0.04;nan
23321;BME280;33376;51.306;4.752;2022-10-31T10:58:35;73235.03;;;-0.04;nan
23321;BME280;33376;51.306;4.752;2022-10-31T11:01:08;73251.84;;;-0.04;nan
23321;BME280;33376;51.306;4.752;2022-10-31T11:03:35;73241.16;;;-0.04;nan
23321;BME280;33376;51.306;4.752;2022-10-31T11:06:00;73222.84;;;-0.04;nan
23321;BME280;33376;51.306;4.752;2022-10-31T11:08:35;73219.78;;;-0.04;nan
23321;BME280;33376;51.306;4.752;2022-10-31T11:13:32;73192.31;;;-0.04;nan
23321;BME280;33376;51.306;4.752;2022-10-31T11:15:59;73201.47;;;-0.04;nan
23321;BME280;33376;51.306;4.752;2022-10-31T11:18:27;73184.69;;;-0.04;nan
23321;BME280;33376;51.306;4.752;2022-10-31T11:20:55;73166.38;;;-0.04;nan
23321;BME280;33376;51.306;4.752;2022-10-31T11:23:21;73167.91;;;-0.04;nan
23321;BME280;33376;51.306;4.752;2022-10-31T11:25:51;73163.34;;;-0.04;nan
23321;BME280;33376;51.306;4.752;2022-10-31T11:28:17;73164.84;;;-0.04;nan
23321;BME280;33376;51.306;4.752;2022-10-31T11:30:44;73154.19;;;-0.04;nan
23321;BME280;33376;51.306;4.752;2022-10-31T11:33:16;73145.03;;;-0.04;nan
23321;BME280;33376;51.306;4.752;2022-10-31T11:35:42;73129.75;;;-0.04;nan
23321;BME280;33376;51.306;4.752;2022-10-31T11:38:12;73132.81;;;-0.04;nan
23321;BME280;33376;51.306;4.752;2022-10-31T11:40:40;73126.72;;;-0.04;nan
23321;BME280;33376;51.306;4.752;2022-10-31T11:43:15;73116.03;;;-0.04;nan
23321;BME280;33376;51.306;4.752;2022-10-31T11:45:42;73106.88;;;-0.04;nan
23321;BME280;33376;51.306;4.752;2022-10-31T11:48:15;73088.56;;;-0.04;nan
23321;BME280;33376;51.306;4.752;2022-10-31T11:50:41;73073.31;;;-0.04;nan
23321;BME280;33376;51.306;4.752;2022-10-31T11:56:14;73033.63;;;-0.04;nan
23321;BME280;33376;51.306;4.752;2022-10-31T11:58:40;73029.06;;;-0.04;nan
23321;BME280;33376;51.306;4.752;2022-10-31T12:01:08;73016.84;;;-0.04;nan
23321;BME280;33376;51.306;4.752;2022-10-31T12:03:51;73000.06;;;-0.04;nan
23321;BME280;33376;51.306;4.752;2022-10-31T12:06:23;72980.22;;;-0.04;nan
23321;BME280;33376;51.306;4.752;2022-10-31T12:08:51;72969.53;;;-0.04;nan
23321;BME280;33376;51.306;4.752;2022-10-31T12:14:00;72937.50;;;-0.04;nan
23321;BME280;33376;51.306;4.752;2022-10-31T12:16:28;72913.09;;;-0.04;nan
23321;BME280;33376;51.306;4.752;2022-10-31T12:29:26;72708.63;;;-0.04;nan
23321;BME280;33376;51.306;4.752;2022-10-31T12:31:57;72662.84;;;-0.04;nan
23321;BME280;33376;51.306;4.752;2022-10-31T12:34:42;72633.84;;;-0.04;nan
23321;BME280;33376;51.306;4.752;2022-10-31T12:50:56;72432.44;;;-0.04;nan
23321;BME280;33376;51.306;4.752;2022-10-31T12:58:40;72351.56;;;-0.04;nan
23321;BME280;33376;51.306;4.752;2022-10-31T13:06:21;72278.31;;;-0.04;nan
23321;BME280;33376;51.306;4.752;2022-10-31T13:08:49;72250.84;;;-0.04;nan
23321;BME280;33376;51.306;4.752;2022-10-31T13:14:05;72185.25;;;-0.04;nan
23321;BME280;33376;51.306;4.752;2022-10-31T13:16:35;72168.44;;;-0.04;nan
23321;BME280;33376;51.306;4.752;2022-10-31T13:21:57;72127.25;;;-0.04;nan
23321;BME280;33376;51.306;4.752;2022-10-31T13:24:26;72107.41;;;-0.04;nan
23321;BME280;33376;51.306;4.752;2022-10-31T13:26:54;72098.25;;;-0.04;nan
23321;BME280;33376;51.306;4.752;2022-10-31T13:29:33;72075.38;;;-0.04;nan
23321;BME280;33376;51.306;4.752;2022-10-31T13:31:59;72064.69;;;-0.04;nan
23321;BME280;33376;51.306;4.752;2022-10-31T13:34:28;72061.63;;;-0.04;nan
23321;BME280;33376;51.306;4.752;2022-10-31T13:37:00;72050.97;;;-0.04;nan
23321;BME280;33376;51.306;4.752;2022-10-31T13:44:40;71960.94;;;-0.05;nan
23321;BME280;33376;51.306;4.752;2022-10-31T13:47:28;71962.47;;;-0.05;nan
23321;BME280;33376;51.306;4.752;2022-10-31T13:50:18;71933.47;;;-0.05;nan
23321;BME280;33376;51.306;4.752;2022-10-31T13:52:44;71906.00;;;-0.05;nan
23321;BME280;33376;51.306;4.752;2022-10-31T14:01:16;71875.47;;;-0.05;nan
23321;BME280;33376;51.306;4.752;2022-10-31T14:03:44;71878.53;;;-0.05;nan
23321;BME280;33376;51.306;4.752;2022-10-31T14:06:10;71869.38;;;-0.05;nan
23321;BME280;33376;51.306;4.752;2022-10-31T14:08:37;71861.75;;;-0.05;nan
23321;BME280;33376;51.306;4.752;2022-10-31T14:11:04;71846.50;;;-0.05;nan
23321;BME280;33376;51.306;4.752;2022-10-31T14:13:31;71837.34;;;-0.05;nan
23321;BME280;33376;51.306;4.752;2022-10-31T14:15:58;71846.50;;;-0.05;nan
23321;BME280;33376;51.306;4.752;2022-10-31T14:18:32;71846.50;;;-0.05;nan
23321;BME280;33376;51.306;4.752;2022-10-31T14:20:58;71857.16;;;-0.05;nan
23321;BME280;33376;51.306;4.752;2022-10-31T14:26:16;71851.06;;;-0.04;nan
23321;BME280;33376;51.306;4.752;2022-10-31T14:28:42;71851.06;;;-0.04;nan
23321;BME280;33376;51.306;4.752;2022-10-31T14:33:51;71883.09;;;-0.04;nan
23321;BME280;33376;51.306;4.752;2022-10-31T14:36:41;71886.16;;;-0.04;nan
23321;BME280;33376;51.306;4.752;2022-10-31T14:39:13;71887.69;;;-0.04;nan
23321;BME280;33376;51.306;4.752;2022-10-31T14:51:42;71844.97;;;-0.04;nan
23321;BME280;33376;51.306;4.752;2022-10-31T14:54:11;71861.75;;;-0.04;nan
23321;BME280;33376;51.306;4.752;2022-10-31T14:56:47;71866.31;;;-0.04;nan
23321;BME280;33376;51.306;4.752;2022-10-31T14:59:14;71866.31;;;-0.04;nan
23321;BME280;33376;51.306;4.752;2022-10-31T15:01:40;71875.47;;;-0.04;nan
23321;BME280;33376;51.306;4.752;2022-10-31T15:04:15;71887.69;;;-0.04;nan
23321;BME280;33376;51.306;4.752;2022-10-31T15:06:44;71895.31;;;-0.04;nan
23321;BME280;33376;51.306;4.752;2022-10-31T15:12:24;71896.84;;;-0.04;nan
23321;BME280;33376;51.306;4.752;2022-10-31T15:14:50;71918.22;;;-0.04;nan
23321;BME280;33376;51.306;4.752;2022-10-31T15:17:15;71931.94;;;-0.04;nan
23321;BME280;33376;51.306;4.752;2022-10-31T15:19:41;71939.56;;;-0.04;nan
23321;BME280;33376;51.306;4.752;2022-10-31T15:22:09;71963.97;;;-0.04;nan
23321;BME280;33376;51.306;4.752;2022-10-31T15:24:37;71959.41;;;-0.04;nan
23321;BME280;33376;51.306;4.752;2022-10-31T15:27:03;71963.97;;;-0.04;nan
23321;BME280;33376;51.306;4.752;2022-10-31T15:29:29;71973.13;;;-0.04;nan
23321;BME280;33376;51.306;4.752;2022-10-31T15:32:19;71962.47;;;-0.04;nan
23321;BME280;33376;51.306;4.752;2022-10-31T15:34:45;71965.50;;;-0.04;nan
23321;BME280;33376;51.306;4.752;2022-10-31T15:37:11;71968.56;;;-0.04;nan
23321;BME280;33376;51.306;4.752;2022-10-31T15:39:38;71980.78;;;-0.04;nan
23321;BME280;33376;51.306;4.752;2022-10-31T15:42:04;72006.72;;;-0.04;nan
23321;BME280;33376;51.306;4.752;2022-10-31T15:44:30;72012.81;;;-0.04;nan
23321;BME280;33376;51.306;4.752;2022-10-31T15:47:00;72017.38;;;-0.04;nan
23321;BME280;33376;51.306;4.752;2022-10-31T15:49:27;72034.16;;;-0.04;nan